createdAt,value
2018-12-06T00:00:05.841Z,3.56
2018-12-06T00:01:05.469Z,3.56
2018-12-06T00:02:05.765Z,3.56
2018-12-06T00:03:06.009Z,3.56
2018-12-06T00:04:05.308Z,3.56
2018-12-06T00:05:05.369Z,3.56
2018-12-06T00:06:05.866Z,3.56
2018-12-06T00:07:05.922Z,3.56
2018-12-06T00:08:05.975Z,3.56
2018-12-06T00:09:05.023Z,3.56
2018-12-06T00:10:05.367Z,3.56
2018-12-06T00:11:05.838Z,3.56
2018-12-06T00:12:05.998Z,3.56
2018-12-06T00:14:05.820Z,3.56
2018-12-06T00:15:05.443Z,3.56
2018-12-06T00:16:05.500Z,3.56
2018-12-06T00:17:05.776Z,3.56
2018-12-06T00:18:05.911Z,3.56
2018-12-06T00:19:05.901Z,3.56
2018-12-06T00:20:05.366Z,3.56
2018-12-06T00:21:05.365Z,3.62
2018-12-06T00:22:05.481Z,3.56
2018-12-06T00:23:05.928Z,3.56
2018-12-06T00:24:05.983Z,3.56
2018-12-06T00:25:05.264Z,3.50
2018-12-06T00:26:05.277Z,3.50
2018-12-06T00:27:05.524Z,3.50
2018-12-06T00:28:05.898Z,3.50
2018-12-06T00:29:05.342Z,3.50
2018-12-06T00:30:05.514Z,3.56
2018-12-06T00:31:05.769Z,3.50
2018-12-06T00:32:05.181Z,3.50
2018-12-06T00:33:05.299Z,3.50
2018-12-06T00:34:05.821Z,3.56
2018-12-06T00:35:05.502Z,3.56
2018-12-06T00:36:05.821Z,3.56
2018-12-06T00:37:05.114Z,3.50
2018-12-06T00:38:05.507Z,3.50
2018-12-06T00:39:05.658Z,3.50
2018-12-06T00:40:05.854Z,3.50
2018-12-06T00:41:05.044Z,3.50
2018-12-06T00:42:05.532Z,3.50
2018-12-06T00:43:06.102Z,3.50
2018-12-06T00:44:05.420Z,3.50
2018-12-06T00:45:05.900Z,3.50
2018-12-06T00:46:05.294Z,3.50
2018-12-06T00:47:05.456Z,3.50
2018-12-06T00:48:05.846Z,3.44
2018-12-06T00:49:05.023Z,3.50
2018-12-06T00:50:05.350Z,3.44
2018-12-06T00:51:06.007Z,3.50
2018-12-06T00:52:05.537Z,3.50
2018-12-06T00:53:05.869Z,3.50
2018-12-06T00:54:05.454Z,3.50
2018-12-06T00:55:05.760Z,3.50
2018-12-06T00:56:05.868Z,3.50
2018-12-06T00:57:05.126Z,3.44
2018-12-06T00:58:05.211Z,3.50
2018-12-06T00:59:05.456Z,3.44
2018-12-06T01:00:05.603Z,3.44
2018-12-06T01:01:06.017Z,3.44
2018-12-06T01:02:05.515Z,3.44
2018-12-06T01:03:06.037Z,3.44
2018-12-06T01:04:06.063Z,3.44
2018-12-06T01:05:05.366Z,3.44
2018-12-06T01:06:05.829Z,3.44
2018-12-06T01:07:05.301Z,3.44
2018-12-06T01:08:05.743Z,3.44
2018-12-06T01:09:05.703Z,3.44
2018-12-06T01:10:05.607Z,3.44
2018-12-06T01:11:05.143Z,3.44
2018-12-06T01:12:05.263Z,3.44
2018-12-06T01:13:05.765Z,3.44
2018-12-06T01:14:05.260Z,3.44
2018-12-06T01:15:05.679Z,3.44
2018-12-06T01:16:06.011Z,3.44
2018-12-06T01:17:05.552Z,3.44
2018-12-06T01:18:05.600Z,3.38
2018-12-06T01:19:05.699Z,3.38
2018-12-06T01:20:05.678Z,3.38
2018-12-06T01:21:05.772Z,3.38
2018-12-06T01:22:05.903Z,3.38
2018-12-06T01:23:06.021Z,3.38
2018-12-06T01:24:05.912Z,3.38
2018-12-06T01:25:05.425Z,3.38
2018-12-06T01:26:05.672Z,3.38
2018-12-06T01:27:05.742Z,3.38
2018-12-06T01:28:05.117Z,3.38
2018-12-06T01:29:05.468Z,3.38
2018-12-06T01:30:05.189Z,3.38
2018-12-06T01:31:05.379Z,3.38
2018-12-06T01:32:05.426Z,3.38
2018-12-06T01:33:05.435Z,3.38
2018-12-06T01:34:05.585Z,3.38
2018-12-06T01:35:05.241Z,3.38
2018-12-06T01:36:05.189Z,3.44
2018-12-06T01:37:05.822Z,3.44
2018-12-06T01:38:05.193Z,3.38
2018-12-06T01:39:05.616Z,3.38
2018-12-06T01:40:05.348Z,3.38
2018-12-06T01:41:06.099Z,3.38
2018-12-06T01:42:05.526Z,3.38
2018-12-06T01:43:05.690Z,3.38
2018-12-06T01:44:05.756Z,3.38
2018-12-06T01:45:05.849Z,3.38
2018-12-06T01:46:05.827Z,3.38
2018-12-06T01:47:05.929Z,3.38
2018-12-06T01:48:06.020Z,3.38
2018-12-06T01:49:05.459Z,3.38
2018-12-06T01:50:05.528Z,3.38
2018-12-06T01:51:05.527Z,3.38
2018-12-06T01:52:05.748Z,3.38
2018-12-06T01:53:05.391Z,3.38
2018-12-06T01:54:05.359Z,3.38
2018-12-06T01:55:05.523Z,3.38
2018-12-06T01:56:05.678Z,3.38
2018-12-06T01:57:05.674Z,3.38
2018-12-06T01:58:05.931Z,3.44
2018-12-06T01:59:05.898Z,3.44
2018-12-06T02:00:05.194Z,3.44
2018-12-06T02:01:05.196Z,3.44
2018-12-06T02:02:05.192Z,3.44
2018-12-06T02:03:05.791Z,3.44
2018-12-06T02:04:05.122Z,3.44
2018-12-06T02:05:05.464Z,3.44
2018-12-06T02:06:05.373Z,3.44
2018-12-06T02:07:05.711Z,3.44
2018-12-06T02:08:05.200Z,3.44
2018-12-06T02:09:05.200Z,3.44
2018-12-06T02:10:05.841Z,3.50
2018-12-06T02:11:05.845Z,3.44
2018-12-06T02:12:05.430Z,3.50
2018-12-06T02:13:05.124Z,3.50
2018-12-06T02:14:05.499Z,3.44
2018-12-06T02:15:05.299Z,3.44
2018-12-06T02:16:05.352Z,3.44
2018-12-06T02:17:05.776Z,3.50
2018-12-06T02:18:05.847Z,3.56
2018-12-06T02:19:05.929Z,3.50
2018-12-06T02:20:05.520Z,3.50
2018-12-06T02:21:06.021Z,3.50
2018-12-06T02:22:05.015Z,3.44
2018-12-06T02:23:05.208Z,3.44
2018-12-06T02:24:05.353Z,3.44
2018-12-06T02:25:05.359Z,3.44
2018-12-06T02:26:05.594Z,3.44
2018-12-06T02:27:05.298Z,3.50
2018-12-06T02:28:05.354Z,3.56
2018-12-06T02:29:05.847Z,3.50
2018-12-06T02:30:06.015Z,3.50
2018-12-06T02:31:05.932Z,3.50
2018-12-06T02:32:05.514Z,3.50
2018-12-06T02:33:05.203Z,3.56
2018-12-06T02:34:05.818Z,3.56
2018-12-06T02:35:06.107Z,3.56
2018-12-06T02:36:05.277Z,3.56
2018-12-06T02:37:05.212Z,3.56
2018-12-06T02:38:05.750Z,3.50
2018-12-06T02:39:05.768Z,3.56
2018-12-06T02:40:05.346Z,3.56
2018-12-06T02:41:06.540Z,3.56
2018-12-06T02:42:05.288Z,3.56
2018-12-06T02:43:05.516Z,3.62
2018-12-06T02:44:05.688Z,3.62
2018-12-06T02:45:05.698Z,3.56
2018-12-06T02:46:05.659Z,3.56
2018-12-06T02:47:05.761Z,3.56
2018-12-06T02:48:05.351Z,3.56
2018-12-06T02:49:05.926Z,3.56
2018-12-06T02:50:06.005Z,3.56
2018-12-06T02:51:05.215Z,3.56
2018-12-06T02:52:06.002Z,3.62
2018-12-06T02:53:06.002Z,3.62
2018-12-06T02:54:05.201Z,3.56
2018-12-06T02:55:05.235Z,3.56
2018-12-06T02:56:05.756Z,3.62
2018-12-06T02:57:05.869Z,3.62
2018-12-06T02:58:06.004Z,3.62
2018-12-06T02:59:05.138Z,3.69
2018-12-06T03:00:05.188Z,3.62
2018-12-06T03:01:05.770Z,3.62
2018-12-06T03:02:05.115Z,3.69
2018-12-06T03:03:05.771Z,3.62
2018-12-06T03:04:05.215Z,3.62
2018-12-06T03:05:05.612Z,3.62
2018-12-06T03:06:05.979Z,3.62
2018-12-06T03:07:05.044Z,3.62
2018-12-06T03:08:05.271Z,3.62
2018-12-06T03:09:05.370Z,3.62
2018-12-06T03:10:05.445Z,3.62
2018-12-06T03:11:05.695Z,3.62
2018-12-06T03:12:05.761Z,3.69
2018-12-06T03:13:05.827Z,3.69
2018-12-06T03:14:05.197Z,3.69
2018-12-06T03:15:05.682Z,3.69
2018-12-06T03:16:05.186Z,3.69
2018-12-06T03:17:05.698Z,3.69
2018-12-06T03:18:05.663Z,3.69
2018-12-06T03:19:05.763Z,3.69
2018-12-06T03:20:05.432Z,3.69
2018-12-06T03:21:05.046Z,3.75
2018-12-06T03:22:05.691Z,3.75
2018-12-06T03:23:05.581Z,3.75
2018-12-06T03:24:06.073Z,3.81
2018-12-06T03:25:05.369Z,3.75
2018-12-06T03:26:05.596Z,3.75
2018-12-06T03:27:06.088Z,3.75
2018-12-06T03:28:05.501Z,3.75
2018-12-06T03:29:05.243Z,3.75
2018-12-06T03:30:05.527Z,3.75
2018-12-06T03:31:05.931Z,3.75
2018-12-06T03:32:05.908Z,3.75
2018-12-06T03:33:05.211Z,3.75
2018-12-06T03:34:05.667Z,3.75
2018-12-06T03:35:05.207Z,3.75
2018-12-06T03:36:05.280Z,3.75
2018-12-06T03:37:05.599Z,3.75
2018-12-06T03:38:05.751Z,3.75
2018-12-06T03:39:06.014Z,3.75
2018-12-06T03:40:05.982Z,3.81
2018-12-06T03:41:05.060Z,3.75
2018-12-06T03:42:05.531Z,3.75
2018-12-06T03:43:05.858Z,3.75
2018-12-06T03:44:05.821Z,3.75
2018-12-06T03:45:05.907Z,3.75
2018-12-06T03:46:05.207Z,3.75
2018-12-06T03:47:05.263Z,3.75
2018-12-06T03:48:05.679Z,3.75
2018-12-06T03:49:05.218Z,3.75
2018-12-06T03:50:06.643Z,3.75
2018-12-06T03:51:05.708Z,3.75
2018-12-06T03:52:06.230Z,3.75
2018-12-06T03:53:05.838Z,3.75
2018-12-06T03:54:05.211Z,3.75
2018-12-06T03:55:05.133Z,3.75
2018-12-06T03:56:05.676Z,3.75
2018-12-06T03:57:05.781Z,3.75
2018-12-06T03:58:05.117Z,3.75
2018-12-06T03:59:05.219Z,3.75
2018-12-06T04:00:05.752Z,3.75
2018-12-06T04:01:05.128Z,3.75
2018-12-06T04:02:05.181Z,3.75
2018-12-06T04:03:05.857Z,3.75
2018-12-06T04:04:05.993Z,3.75
2018-12-06T04:05:05.220Z,3.75
2018-12-06T04:06:05.341Z,3.75
2018-12-06T04:07:05.846Z,3.75
2018-12-06T04:08:05.280Z,3.75
2018-12-06T04:09:05.784Z,3.75
2018-12-06T04:10:05.268Z,3.75
2018-12-06T04:11:05.274Z,3.75
2018-12-06T04:12:05.590Z,3.75
2018-12-06T04:13:05.578Z,3.75
2018-12-06T04:14:05.988Z,3.75
2018-12-06T04:15:05.131Z,3.75
2018-12-06T04:16:05.207Z,3.69
2018-12-06T04:17:05.617Z,3.69
2018-12-06T04:18:05.677Z,3.69
2018-12-06T04:19:05.682Z,3.69
2018-12-06T04:20:05.991Z,3.69
2018-12-06T04:21:05.229Z,3.69
2018-12-06T04:22:05.290Z,3.69
2018-12-06T04:23:05.380Z,3.69
2018-12-06T04:24:05.427Z,3.62
2018-12-06T04:25:05.622Z,3.62
2018-12-06T04:26:05.604Z,3.62
2018-12-06T04:27:05.582Z,3.62
2018-12-06T04:28:06.074Z,3.62
2018-12-06T04:29:05.538Z,3.62
2018-12-06T04:30:05.596Z,3.62
2018-12-06T04:31:05.763Z,3.62
2018-12-06T04:32:05.853Z,3.62
2018-12-06T04:33:05.053Z,3.62
2018-12-06T04:34:05.201Z,3.62
2018-12-06T04:35:05.440Z,3.62
2018-12-06T04:36:05.773Z,3.62
2018-12-06T04:37:05.991Z,3.62
2018-12-06T04:38:05.188Z,3.62
2018-12-06T04:39:05.546Z,3.62
2018-12-06T04:40:05.491Z,3.56
2018-12-06T04:41:05.190Z,3.62
2018-12-06T04:42:05.421Z,3.62
2018-12-06T04:43:05.718Z,3.62
2018-12-06T04:44:05.956Z,3.62
2018-12-06T04:45:05.053Z,3.62
2018-12-06T04:46:05.373Z,3.62
2018-12-06T04:47:06.797Z,3.62
2018-12-06T04:48:05.128Z,3.62
2018-12-06T04:49:05.719Z,3.62
2018-12-06T04:50:05.777Z,3.62
2018-12-06T04:51:05.117Z,3.62
2018-12-06T04:52:05.203Z,3.62
2018-12-06T04:53:05.898Z,3.62
2018-12-06T04:54:05.532Z,3.62
2018-12-06T04:55:05.681Z,3.69
2018-12-06T04:56:05.682Z,3.69
2018-12-06T04:57:05.119Z,3.69
2018-12-06T04:58:05.300Z,3.69
2018-12-06T04:59:05.419Z,3.69
2018-12-06T05:00:05.428Z,3.69
2018-12-06T05:01:05.784Z,3.75
2018-12-06T05:02:05.050Z,3.75
2018-12-06T05:03:05.665Z,3.75
2018-12-06T05:04:05.206Z,3.75
2018-12-06T05:05:05.748Z,3.75
2018-12-06T05:06:05.932Z,3.75
2018-12-06T05:07:05.422Z,3.81
2018-12-06T05:08:05.636Z,3.81
2018-12-06T05:09:05.750Z,3.81
2018-12-06T05:10:05.762Z,3.81
2018-12-06T05:11:05.206Z,3.81
2018-12-06T05:12:05.285Z,3.81
2018-12-06T05:13:05.609Z,3.88
2018-12-06T05:14:05.948Z,3.88
2018-12-06T05:15:05.923Z,3.88
2018-12-06T05:16:05.128Z,3.88
2018-12-06T05:17:05.676Z,3.88
2018-12-06T05:18:05.770Z,3.94
2018-12-06T05:19:05.429Z,3.94
2018-12-06T05:20:05.536Z,3.94
2018-12-06T05:21:05.701Z,3.94
2018-12-06T05:22:05.688Z,3.94
2018-12-06T05:23:05.668Z,3.94
2018-12-06T05:24:05.368Z,3.94
2018-12-06T05:25:06.229Z,3.94
2018-12-06T05:26:05.768Z,4.00
2018-12-06T05:27:05.735Z,4.00
2018-12-06T05:28:05.943Z,4.00
2018-12-06T05:29:05.197Z,4.00
2018-12-06T05:30:05.283Z,4.06
2018-12-06T05:31:05.895Z,4.06
2018-12-06T05:32:06.020Z,4.06
2018-12-06T05:33:05.201Z,4.06
2018-12-06T05:34:05.382Z,4.12
2018-12-06T05:35:05.917Z,4.12
2018-12-06T05:36:06.010Z,4.12
2018-12-06T05:37:05.106Z,4.12
2018-12-06T05:38:05.375Z,4.12
2018-12-06T05:39:05.525Z,4.12
2018-12-06T05:40:05.440Z,4.12
2018-12-06T05:41:05.742Z,4.12
2018-12-06T05:42:05.995Z,4.19
2018-12-06T05:43:05.255Z,4.12
2018-12-06T05:44:05.368Z,4.12
2018-12-06T05:45:05.816Z,4.19
2018-12-06T05:46:05.449Z,4.19
2018-12-06T05:47:05.532Z,4.19
2018-12-06T05:48:05.858Z,4.19
2018-12-06T05:49:05.907Z,4.19
2018-12-06T05:50:06.024Z,4.19
2018-12-06T05:51:05.183Z,4.19
2018-12-06T05:52:05.376Z,4.19
2018-12-06T05:53:05.448Z,4.19
2018-12-06T05:54:05.678Z,4.19
2018-12-06T05:55:05.826Z,4.19
2018-12-06T05:56:05.362Z,4.19
2018-12-06T05:57:06.094Z,4.19
2018-12-06T05:58:05.134Z,4.25
2018-12-06T05:59:05.601Z,4.25
2018-12-06T06:00:05.126Z,4.25
2018-12-06T06:01:05.594Z,4.25
2018-12-06T06:02:05.975Z,4.25
2018-12-06T06:03:05.680Z,4.25
2018-12-06T06:04:05.762Z,4.25
2018-12-06T06:05:05.904Z,4.25
2018-12-06T06:06:05.277Z,4.25
2018-12-06T06:07:05.674Z,4.25
2018-12-06T06:08:05.128Z,4.25
2018-12-06T06:09:05.217Z,4.25
2018-12-06T06:10:05.465Z,4.25
2018-12-06T06:11:05.843Z,4.25
2018-12-06T06:12:06.016Z,4.25
2018-12-06T06:13:05.109Z,4.31
2018-12-06T06:14:05.227Z,4.31
2018-12-06T06:15:05.289Z,4.31
2018-12-06T06:16:05.340Z,4.31
2018-12-06T06:17:05.526Z,4.31
2018-12-06T06:18:05.689Z,4.31
2018-12-06T06:19:05.916Z,4.31
2018-12-06T06:20:05.928Z,4.31
2018-12-06T06:21:05.916Z,4.31
2018-12-06T06:22:05.920Z,4.38
2018-12-06T06:23:06.048Z,4.31
2018-12-06T06:24:05.531Z,4.38
2018-12-06T06:25:05.678Z,4.31
2018-12-06T06:26:05.019Z,4.38
2018-12-06T06:27:05.183Z,4.38
2018-12-06T06:28:05.396Z,4.38
2018-12-06T06:29:05.747Z,4.38
2018-12-06T06:30:05.305Z,4.38
2018-12-06T06:31:05.447Z,4.38
2018-12-06T06:32:05.370Z,4.38
2018-12-06T06:33:05.431Z,4.38
2018-12-06T06:34:05.518Z,4.38
2018-12-06T06:35:06.075Z,4.44
2018-12-06T06:36:05.468Z,4.44
2018-12-06T06:37:05.499Z,4.44
2018-12-06T06:38:05.657Z,4.44
2018-12-06T06:39:06.898Z,4.44
2018-12-06T06:40:05.287Z,4.44
2018-12-06T06:41:05.437Z,4.44
2018-12-06T06:42:05.844Z,4.44
2018-12-06T06:43:05.334Z,4.44
2018-12-06T06:44:05.433Z,4.44
2018-12-06T06:45:05.779Z,4.50
2018-12-06T06:46:05.859Z,4.50
2018-12-06T06:47:05.917Z,4.50
2018-12-06T06:48:05.611Z,4.50
2018-12-06T06:49:05.106Z,4.56
2018-12-06T06:50:05.285Z,4.50
2018-12-06T06:51:05.346Z,4.50
2018-12-06T06:52:06.002Z,4.56
2018-12-06T06:53:05.516Z,4.56
2018-12-06T06:54:05.622Z,4.56
2018-12-06T06:55:05.658Z,4.56
2018-12-06T06:56:05.750Z,4.56
2018-12-06T06:57:05.032Z,4.56
2018-12-06T06:58:05.682Z,4.56
2018-12-06T06:59:05.424Z,4.56
2018-12-06T07:00:05.037Z,4.56
2018-12-06T07:01:05.289Z,4.56
2018-12-06T07:02:05.620Z,4.56
2018-12-06T07:03:05.207Z,4.62
2018-12-06T07:04:05.389Z,4.62
2018-12-06T07:05:05.928Z,4.62
2018-12-06T07:06:05.425Z,4.62
2018-12-06T07:07:05.737Z,4.62
2018-12-06T07:08:05.535Z,4.62
2018-12-06T07:09:05.531Z,4.62
2018-12-06T07:10:05.693Z,4.62
2018-12-06T07:11:05.680Z,4.69
2018-12-06T07:12:05.863Z,4.69
2018-12-06T07:13:05.896Z,4.69
2018-12-06T07:14:05.041Z,4.69
2018-12-06T07:15:05.670Z,4.69
2018-12-06T07:16:05.106Z,4.69
2018-12-06T07:17:05.384Z,4.69
2018-12-06T07:18:05.530Z,4.69
2018-12-06T07:19:05.581Z,4.69
2018-12-06T07:20:05.137Z,4.69
2018-12-06T07:21:05.264Z,4.69
2018-12-06T07:22:05.777Z,4.69
2018-12-06T07:23:05.343Z,4.75
2018-12-06T07:24:05.469Z,4.75
2018-12-06T07:25:05.675Z,4.75
2018-12-06T07:26:05.700Z,4.75
2018-12-06T07:27:05.197Z,4.75
2018-12-06T07:28:05.373Z,4.75
2018-12-06T07:29:05.659Z,4.75
2018-12-06T07:30:12.046Z,4.75
2018-12-06T07:31:05.026Z,4.75
2018-12-06T07:32:05.211Z,4.75
2018-12-06T07:33:05.768Z,4.75
2018-12-06T07:34:06.009Z,4.81
2018-12-06T07:35:05.099Z,4.81
2018-12-06T07:36:05.600Z,4.81
2018-12-06T07:37:05.013Z,4.81
2018-12-06T07:38:05.793Z,4.81
2018-12-06T07:39:05.919Z,4.81
2018-12-06T07:40:05.346Z,4.81
2018-12-06T07:41:05.768Z,4.81
2018-12-06T07:42:05.846Z,4.81
2018-12-06T07:43:05.204Z,4.88
2018-12-06T07:44:05.391Z,4.88
2018-12-06T07:45:05.496Z,4.88
2018-12-06T07:46:05.846Z,4.88
2018-12-06T07:47:05.358Z,4.88
2018-12-06T07:48:05.974Z,4.88
2018-12-06T07:49:05.337Z,4.88
2018-12-06T07:50:05.852Z,4.94
2018-12-06T07:51:05.043Z,4.94
2018-12-06T07:52:05.273Z,4.94
2018-12-06T07:53:05.493Z,4.94
2018-12-06T07:54:05.570Z,4.94
2018-12-06T07:55:05.995Z,4.94
2018-12-06T07:56:05.312Z,5.00
2018-12-06T07:57:05.285Z,5.00
2018-12-06T07:58:05.355Z,5.00
2018-12-06T07:59:05.686Z,5.00
2018-12-06T08:00:05.923Z,5.00
2018-12-06T08:01:05.111Z,5.06
2018-12-06T08:02:05.600Z,5.06
2018-12-06T08:03:05.363Z,5.06
2018-12-06T08:04:05.361Z,5.06
2018-12-06T08:05:06.004Z,5.06
2018-12-06T08:06:05.212Z,5.06
2018-12-06T08:07:05.962Z,5.06
2018-12-06T08:08:05.043Z,5.06
2018-12-06T08:09:05.584Z,5.06
2018-12-06T08:10:05.025Z,5.06
2018-12-06T08:11:05.302Z,5.06
2018-12-06T08:12:05.445Z,5.06
2018-12-06T08:13:05.842Z,5.12
2018-12-06T08:14:05.207Z,5.12
2018-12-06T08:15:05.498Z,5.12
2018-12-06T08:16:05.701Z,5.12
2018-12-06T08:17:05.045Z,5.12
2018-12-06T08:18:05.286Z,5.12
2018-12-06T08:19:05.347Z,5.12
2018-12-06T08:20:06.015Z,5.19
2018-12-06T08:21:05.595Z,5.19
2018-12-06T08:22:05.606Z,5.19
2018-12-06T08:23:05.354Z,5.19
2018-12-06T08:24:05.563Z,5.19
2018-12-06T08:25:05.755Z,5.19
2018-12-06T08:26:05.774Z,5.25
2018-12-06T08:27:05.197Z,5.25
2018-12-06T08:28:05.929Z,5.25
2018-12-06T08:29:05.217Z,5.25
2018-12-06T08:30:05.749Z,5.31
2018-12-06T08:31:05.996Z,5.31
2018-12-06T08:32:05.133Z,5.31
2018-12-06T08:33:05.590Z,5.38
2018-12-06T08:34:06.276Z,5.38
2018-12-06T08:35:05.205Z,5.38
2018-12-06T08:36:05.145Z,5.38
2018-12-06T08:37:05.219Z,5.38
2018-12-06T08:38:05.530Z,5.38
2018-12-06T08:39:05.181Z,5.38
2018-12-06T08:40:05.667Z,5.44
2018-12-06T08:41:05.194Z,5.44
2018-12-06T08:42:05.792Z,5.44
2018-12-06T08:43:05.926Z,5.44
2018-12-06T08:44:06.008Z,5.44
2018-12-06T08:45:05.127Z,5.44
2018-12-06T08:46:05.313Z,5.44
2018-12-06T08:47:05.667Z,5.50
2018-12-06T08:48:05.280Z,5.50
2018-12-06T08:49:05.506Z,5.50
2018-12-06T08:50:05.209Z,5.50
2018-12-06T08:51:05.379Z,5.56
2018-12-06T08:52:05.637Z,5.56
2018-12-06T08:53:05.687Z,5.56
2018-12-06T08:54:06.015Z,5.56
2018-12-06T08:55:05.986Z,5.62
2018-12-06T08:56:05.045Z,5.62
2018-12-06T08:57:05.672Z,5.69
2018-12-06T08:58:05.763Z,5.69
2018-12-06T08:59:05.174Z,5.69
2018-12-06T09:00:05.368Z,5.75
2018-12-06T09:01:05.847Z,5.75
2018-12-06T09:02:05.929Z,5.75
2018-12-06T09:03:05.500Z,5.81
2018-12-06T09:04:05.098Z,5.81
2018-12-06T09:05:05.428Z,5.81
2018-12-06T09:06:05.619Z,5.88
2018-12-06T09:07:05.577Z,5.88
2018-12-06T09:08:05.219Z,5.88
2018-12-06T09:09:05.210Z,5.94
2018-12-06T09:10:05.428Z,5.94
2018-12-06T09:11:05.607Z,5.94
2018-12-06T09:12:06.853Z,5.94
2018-12-06T09:13:05.205Z,6.00
2018-12-06T09:14:05.288Z,6.00
2018-12-06T09:15:05.772Z,6.00
2018-12-06T09:16:06.016Z,6.06
2018-12-06T09:17:05.448Z,6.06
2018-12-06T09:18:06.013Z,6.06
2018-12-06T09:19:05.447Z,6.06
2018-12-06T09:20:05.526Z,6.06
2018-12-06T09:21:05.531Z,6.06
2018-12-06T09:22:05.851Z,6.12
2018-12-06T09:23:05.282Z,6.12
2018-12-06T09:24:05.421Z,6.12
2018-12-06T09:25:05.580Z,6.12
2018-12-06T09:26:05.737Z,6.12
2018-12-06T09:27:05.297Z,6.19
2018-12-06T09:28:05.498Z,6.19
2018-12-06T09:29:05.746Z,6.19
2018-12-06T09:30:05.914Z,6.19
2018-12-06T09:31:05.417Z,6.25
2018-12-06T09:32:05.750Z,6.25
2018-12-06T09:33:05.930Z,6.25
2018-12-06T09:34:05.905Z,6.25
2018-12-06T09:35:05.432Z,6.31
2018-12-06T09:36:05.680Z,6.31
2018-12-06T09:37:05.686Z,6.31
2018-12-06T09:38:05.783Z,6.38
2018-12-06T09:39:06.100Z,6.38
2018-12-06T09:40:05.203Z,6.38
2018-12-06T09:41:05.280Z,6.38
2018-12-06T09:42:05.914Z,6.44
2018-12-06T09:43:05.846Z,6.44
2018-12-06T09:44:06.091Z,6.44
2018-12-06T09:45:06.107Z,6.50
2018-12-06T09:46:05.181Z,6.50
2018-12-06T09:47:05.784Z,6.50
2018-12-06T09:48:05.193Z,6.56
2018-12-06T09:49:05.521Z,6.56
2018-12-06T09:50:05.184Z,6.62
2018-12-06T09:51:05.613Z,6.62
2018-12-06T09:52:05.751Z,6.62
2018-12-06T09:53:06.027Z,6.69
2018-12-06T09:54:05.029Z,6.69
2018-12-06T09:55:05.115Z,6.75
2018-12-06T09:56:05.695Z,6.75
2018-12-06T09:57:05.840Z,6.81
2018-12-06T09:58:05.311Z,6.81
2018-12-06T09:59:05.700Z,6.81
2018-12-06T10:00:05.670Z,6.88
2018-12-06T10:01:05.771Z,6.88
2018-12-06T10:02:05.857Z,6.94
2018-12-06T10:03:05.130Z,7.00
2018-12-06T10:04:05.177Z,7.00
2018-12-06T10:05:05.847Z,7.06
2018-12-06T10:06:05.977Z,7.12
2018-12-06T10:07:05.282Z,7.19
2018-12-06T10:08:05.762Z,7.25
2018-12-06T10:09:05.291Z,7.31
2018-12-06T10:10:05.694Z,7.31
2018-12-06T10:11:05.848Z,7.38
2018-12-06T10:12:05.027Z,7.44
2018-12-06T10:13:05.390Z,7.50
2018-12-06T10:14:05.363Z,7.56
2018-12-06T10:15:05.769Z,7.56
2018-12-06T10:16:05.354Z,7.62
2018-12-06T10:17:05.530Z,7.69
2018-12-06T10:18:05.816Z,7.75
2018-12-06T10:19:05.428Z,7.75
2018-12-06T10:20:05.606Z,7.81
2018-12-06T10:21:05.681Z,7.81
2018-12-06T10:22:05.772Z,7.88
2018-12-06T10:23:06.990Z,7.94
2018-12-06T10:24:05.187Z,7.94
2018-12-06T10:25:05.271Z,7.94
2018-12-06T10:26:05.398Z,7.94
2018-12-06T10:27:05.522Z,7.94
2018-12-06T10:28:05.848Z,7.94
2018-12-06T10:29:05.033Z,8.00
2018-12-06T10:30:05.369Z,8.00
2018-12-06T10:31:05.855Z,8.00
2018-12-06T10:32:05.900Z,8.00
2018-12-06T10:33:05.141Z,8.06
2018-12-06T10:34:05.538Z,8.06
2018-12-06T10:35:05.687Z,8.06
2018-12-06T10:36:05.286Z,8.06
2018-12-06T10:37:05.445Z,8.06
2018-12-06T10:38:05.502Z,8.12
2018-12-06T10:39:06.128Z,8.12
2018-12-06T10:40:05.996Z,8.12
2018-12-06T10:41:05.515Z,8.12
2018-12-06T10:42:05.928Z,8.12
2018-12-06T10:43:06.016Z,8.19
2018-12-06T10:44:05.219Z,8.12
2018-12-06T10:45:05.290Z,8.12
2018-12-06T10:46:05.384Z,8.12
2018-12-06T10:47:05.615Z,8.19
2018-12-06T10:48:05.581Z,8.12
2018-12-06T10:49:05.030Z,8.19
2018-12-06T10:50:05.346Z,8.19
2018-12-06T10:51:05.440Z,8.19
2018-12-06T10:52:05.094Z,8.12
2018-12-06T10:53:05.190Z,8.19
2018-12-06T10:54:05.448Z,8.19
2018-12-06T10:55:05.578Z,8.19
2018-12-06T10:56:05.829Z,8.19
2018-12-06T10:57:05.229Z,8.19
2018-12-06T10:58:05.289Z,8.19
2018-12-06T10:59:05.872Z,8.19
2018-12-06T11:00:05.839Z,8.19
2018-12-06T11:01:05.386Z,8.19
2018-12-06T11:02:05.760Z,8.19
2018-12-06T11:03:05.296Z,8.19
2018-12-06T11:04:05.260Z,8.19
2018-12-06T11:05:05.849Z,8.19
2018-12-06T11:06:05.509Z,8.19
2018-12-06T11:07:05.697Z,8.19
2018-12-06T11:08:05.833Z,8.19
2018-12-06T11:09:05.818Z,8.19
2018-12-06T11:10:05.934Z,8.19
2018-12-06T11:11:05.606Z,8.19
2018-12-06T11:12:05.180Z,8.19
2018-12-06T11:13:05.276Z,8.19
2018-12-06T11:14:05.262Z,8.19
2018-12-06T11:15:05.363Z,8.25
2018-12-06T11:16:05.926Z,8.25
2018-12-06T11:17:05.114Z,8.25
2018-12-06T11:18:05.352Z,8.25
2018-12-06T11:19:05.441Z,8.25
2018-12-06T11:20:05.688Z,8.25
2018-12-06T11:21:06.011Z,8.25
2018-12-06T11:22:05.219Z,8.31
2018-12-06T11:23:05.450Z,8.31
2018-12-06T11:24:05.611Z,8.31
2018-12-06T11:25:05.722Z,8.31
2018-12-06T11:26:05.689Z,8.31
2018-12-06T11:27:05.679Z,8.31
2018-12-06T11:28:05.932Z,8.31
2018-12-06T11:29:05.531Z,8.38
2018-12-06T11:30:06.004Z,8.38
2018-12-06T11:31:05.427Z,8.38
2018-12-06T11:32:05.764Z,8.38
2018-12-06T11:33:06.185Z,8.38
2018-12-06T11:34:06.145Z,8.44
2018-12-06T11:35:05.438Z,8.44
2018-12-06T11:36:05.690Z,8.44
2018-12-06T11:37:05.595Z,8.44
2018-12-06T11:38:05.747Z,8.44
2018-12-06T11:39:05.367Z,8.44
2018-12-06T11:40:05.115Z,8.44
2018-12-06T11:41:05.207Z,8.44
2018-12-06T11:42:05.387Z,8.50
2018-12-06T11:43:05.508Z,8.44
2018-12-06T11:44:05.855Z,8.44
2018-12-06T11:45:05.139Z,8.50
2018-12-06T11:46:05.663Z,8.50
2018-12-06T11:47:05.921Z,8.50
2018-12-06T11:48:05.276Z,8.50
2018-12-06T11:49:05.266Z,8.50
2018-12-06T11:50:05.554Z,8.50
2018-12-06T11:51:05.770Z,8.50
2018-12-06T11:52:05.913Z,8.50
2018-12-06T11:53:05.301Z,8.50
2018-12-06T11:54:05.865Z,8.50
2018-12-06T11:55:05.816Z,8.50
2018-12-06T11:56:05.166Z,8.50
2018-12-06T11:57:05.445Z,8.50
2018-12-06T11:58:11.388Z,8.50
2018-12-06T11:59:05.171Z,8.50
2018-12-06T12:00:05.209Z,8.50
2018-12-06T12:01:05.544Z,8.50
2018-12-06T12:02:09.839Z,8.50
2018-12-06T12:03:05.708Z,8.50
2018-12-06T12:04:05.671Z,8.56
2018-12-06T12:05:05.311Z,8.56
2018-12-06T12:06:05.198Z,8.56
2018-12-06T12:07:05.287Z,8.56
2018-12-06T12:08:05.278Z,8.56
2018-12-06T12:09:05.852Z,8.56
2018-12-06T12:10:05.178Z,8.56
2018-12-06T12:11:05.770Z,8.56
2018-12-06T12:12:05.842Z,8.56
2018-12-06T12:13:05.928Z,8.56
2018-12-06T12:14:05.529Z,8.62
2018-12-06T12:15:05.693Z,8.62
2018-12-06T12:16:05.747Z,8.62
2018-12-06T12:17:05.220Z,8.62
2018-12-06T12:18:05.688Z,8.62
2018-12-06T12:19:05.859Z,8.62
2018-12-06T12:20:05.494Z,8.62
2018-12-06T12:21:05.042Z,8.62
2018-12-06T12:22:05.750Z,8.62
2018-12-06T12:23:05.338Z,8.62
2018-12-06T12:24:05.174Z,8.62
2018-12-06T12:25:06.079Z,8.62
2018-12-06T12:26:05.494Z,8.62
2018-12-06T12:27:05.304Z,8.62
2018-12-06T12:28:05.199Z,8.62
2018-12-06T12:29:05.890Z,8.62
2018-12-06T12:30:05.757Z,8.62
2018-12-06T12:31:05.220Z,8.62
2018-12-06T12:32:05.771Z,8.62
2018-12-06T12:33:05.902Z,8.62
2018-12-06T12:34:05.182Z,8.62
2018-12-06T12:35:05.188Z,8.62
2018-12-06T12:36:05.351Z,8.62
2018-12-06T12:37:05.937Z,8.62
2018-12-06T12:38:05.183Z,8.62
2018-12-06T12:39:05.784Z,8.62
2018-12-06T12:40:05.921Z,8.62
2018-12-06T12:41:05.905Z,8.69
2018-12-06T12:42:05.065Z,8.69
2018-12-06T12:43:05.367Z,8.69
2018-12-06T12:44:06.006Z,8.62
2018-12-06T12:45:05.926Z,8.62
2018-12-06T12:46:05.990Z,8.62
2018-12-06T12:47:05.043Z,8.62
2018-12-06T12:48:10.615Z,8.69
2018-12-06T12:49:05.532Z,8.62
2018-12-06T12:50:05.182Z,8.69
2018-12-06T12:51:05.308Z,8.69
2018-12-06T12:52:05.823Z,8.62
2018-12-06T12:53:05.954Z,8.62
2018-12-06T12:54:05.901Z,8.69
2018-12-06T12:55:05.110Z,8.62
2018-12-06T12:56:05.362Z,8.62
2018-12-06T12:57:05.612Z,8.62
2018-12-06T12:58:05.532Z,8.62
2018-12-06T12:59:05.928Z,8.69
2018-12-06T13:00:05.435Z,8.69
2018-12-06T13:01:05.676Z,8.69
2018-12-06T13:02:05.927Z,8.69
2018-12-06T13:03:05.231Z,8.69
2018-12-06T13:04:05.585Z,8.69
2018-12-06T13:05:05.243Z,8.69
2018-12-06T13:06:05.267Z,8.62
2018-12-06T13:07:05.841Z,8.62
2018-12-06T13:08:05.361Z,8.62
2018-12-06T13:09:05.531Z,8.62
2018-12-06T13:10:06.169Z,8.62
2018-12-06T13:11:05.217Z,8.62
2018-12-06T13:12:05.289Z,8.69
2018-12-06T13:13:05.440Z,8.62
2018-12-06T13:14:05.605Z,8.62
2018-12-06T13:15:06.194Z,8.62
2018-12-06T13:16:05.097Z,8.62
2018-12-06T13:17:05.282Z,8.62
2018-12-06T13:18:05.830Z,8.62
2018-12-06T13:19:05.618Z,8.62